createdAt,value
2019-01-29T00:00:30.805Z,0.21
2019-01-29T00:05:33.986Z,0.19
2019-01-29T00:10:37.275Z,0.16
2019-01-29T00:15:40.559Z,0.14
2019-01-29T00:20:43.867Z,0.08
2019-01-29T00:25:47.062Z,0.04
2019-01-29T00:30:50.245Z,0.12
2019-01-29T00:35:53.485Z,0.20
2019-01-29T00:40:56.667Z,0.23
2019-01-29T00:45:59.910Z,0.23
2019-01-29T00:51:04.138Z,0.22
2019-01-29T00:56:07.326Z,0.14
2019-01-29T01:01:10.525Z,0.11
2019-01-29T01:06:13.809Z,0.05
2019-01-29T01:11:17.185Z,0.03
2019-01-29T01:16:20.376Z,-0.03
2019-01-29T01:21:23.576Z,0.02
2019-01-29T01:26:26.829Z,-0.01
2019-01-29T01:31:29.984Z,-0.04
2019-01-29T01:36:33.264Z,-0.01
2019-01-29T01:41:36.461Z,-0.07
2019-01-29T01:46:39.757Z,-0.09
2019-01-29T01:51:42.952Z,-0.09
2019-01-29T01:56:46.186Z,-0.12
2019-01-29T02:01:49.395Z,-0.13
2019-01-29T02:06:52.667Z,-0.17
2019-01-29T02:11:55.925Z,-0.18
2019-01-29T02:16:59.160Z,-0.23
2019-01-29T02:22:02.409Z,-0.26
2019-01-29T02:27:05.813Z,-0.32
2019-01-29T02:32:08.996Z,-0.39
2019-01-29T02:37:12.279Z,-0.34
2019-01-29T02:42:15.469Z,-0.40
2019-01-29T02:47:18.718Z,-0.39
2019-01-29T02:52:21.939Z,-0.39
2019-01-29T02:57:25.123Z,-0.42
2019-01-29T03:02:28.331Z,-0.47
2019-01-29T03:07:31.542Z,-0.47
2019-01-29T03:12:34.771Z,-0.50
2019-01-29T03:17:37.973Z,-0.48
2019-01-29T03:22:41.205Z,-0.52
2019-01-29T03:27:44.508Z,-0.54
2019-01-29T03:32:47.797Z,-0.52
2019-01-29T03:37:51.053Z,-0.50
2019-01-29T03:42:54.279Z,-0.51
2019-01-29T03:47:57.704Z,-0.50
2019-01-29T03:53:01.147Z,-0.56
2019-01-29T03:58:04.513Z,-0.63
2019-01-29T04:03:07.864Z,-0.62
2019-01-29T04:08:11.267Z,-0.62
2019-01-29T04:13:14.593Z,-0.63
2019-01-29T04:18:18.113Z,-0.62
2019-01-29T04:23:21.367Z,-0.67
2019-01-29T04:28:24.785Z,-0.69
2019-01-29T04:33:28.143Z,-0.74
2019-01-29T04:38:31.389Z,-0.68
2019-01-29T04:43:34.666Z,-0.72
2019-01-29T04:48:37.914Z,-0.69
2019-01-29T04:53:41.118Z,-0.72
2019-01-29T04:58:44.321Z,-0.74
2019-01-29T05:03:47.526Z,-0.75
2019-01-29T05:08:50.714Z,-0.74
2019-01-29T05:13:53.925Z,-0.82
2019-01-29T05:18:57.146Z,-0.77
2019-01-29T05:24:06.599Z,-0.79
2019-01-29T05:29:03.563Z,-0.82
2019-01-29T05:34:06.775Z,-0.81
2019-01-29T05:39:10.434Z,-0.78
2019-01-29T05:44:14.708Z,-0.68
2019-01-29T05:49:17.883Z,-0.60
2019-01-29T05:54:21.100Z,-0.49
2019-01-29T05:59:25.367Z,-0.48
2019-01-29T06:04:28.577Z,-0.55
2019-01-29T06:09:31.765Z,-0.53
2019-01-29T06:14:34.954Z,-0.67
2019-01-29T06:19:38.133Z,-0.61
2019-01-29T06:24:41.317Z,-0.65
2019-01-29T06:29:44.505Z,-0.59
2019-01-29T06:34:47.797Z,-0.59
2019-01-29T06:39:51.016Z,-0.55
2019-01-29T06:44:54.207Z,-0.51
2019-01-29T06:49:57.385Z,-0.50
2019-01-29T06:55:00.608Z,-0.54
2019-01-29T07:00:04.146Z,-0.55
2019-01-29T07:05:07.651Z,-0.59
2019-01-29T07:10:11.952Z,-0.63
2019-01-29T07:16:24.498Z,-0.61
2019-01-29T07:21:27.693Z,-0.60
2019-01-29T07:26:30.887Z,-0.65
2019-01-29T07:31:34.135Z,-0.64
2019-01-29T07:36:37.369Z,-0.60
2019-01-29T07:41:40.606Z,-0.60
2019-01-29T07:46:43.983Z,-0.51
2019-01-29T07:51:47.299Z,-0.45
2019-01-29T07:56:50.586Z,-0.37
2019-01-29T08:01:53.768Z,-0.39
2019-01-29T08:06:56.966Z,-0.42
2019-01-29T08:12:00.165Z,-0.32
2019-01-29T08:17:03.373Z,-0.29
2019-01-29T08:22:06.574Z,-0.40
2019-01-29T08:27:09.795Z,-0.27
2019-01-29T08:32:12.985Z,-0.08
2019-01-29T08:37:16.212Z,0.00
2019-01-29T08:42:19.427Z,0.02
2019-01-29T08:47:22.725Z,0.06
2019-01-29T08:52:26.062Z,0.01
2019-01-29T08:57:29.396Z,-0.05
2019-01-29T09:02:32.634Z,0.10
2019-01-29T09:07:35.826Z,0.08
2019-01-29T09:12:39.016Z,0.20
2019-01-29T09:17:42.200Z,0.34
2019-01-29T09:22:45.386Z,0.59
2019-01-29T09:27:48.560Z,0.71
2019-01-29T09:32:51.770Z,0.43
2019-01-29T09:37:54.966Z,0.64
2019-01-29T09:42:58.181Z,0.77
2019-01-29T09:48:01.396Z,0.66
2019-01-29T09:53:04.706Z,0.91
2019-01-29T09:58:07.914Z,0.87
2019-01-29T10:03:11.114Z,0.95
2019-01-29T10:08:14.342Z,0.79
2019-01-29T10:13:17.746Z,0.79
2019-01-29T10:18:20.976Z,0.96
2019-01-29T10:23:24.246Z,0.87
2019-01-29T10:28:27.442Z,0.95
2019-01-29T10:33:30.646Z,0.90
2019-01-29T10:38:33.977Z,0.74
2019-01-29T10:43:37.231Z,0.91
2019-01-29T10:48:40.461Z,1.15
2019-01-29T10:53:43.651Z,0.99
2019-01-29T10:58:46.894Z,0.93
2019-01-29T11:03:50.083Z,1.24
2019-01-29T11:08:53.282Z,1.25
2019-01-29T11:13:56.510Z,1.29
2019-01-29T11:19:03.460Z,1.21
2019-01-29T11:24:03.198Z,1.36
2019-01-29T11:29:06.462Z,1.16
2019-01-29T11:34:09.765Z,1.21
2019-01-29T11:39:12.982Z,1.65
2019-01-29T11:44:16.196Z,1.22
2019-01-29T11:49:19.421Z,1.59
2019-01-29T11:54:22.975Z,1.64
2019-01-29T11:59:26.294Z,1.56
2019-01-29T12:04:29.471Z,1.52
2019-01-29T12:09:32.793Z,1.75
2019-01-29T12:14:36.010Z,2.04
2019-01-29T12:19:39.290Z,2.02
2019-01-29T12:24:42.546Z,1.92
2019-01-29T12:29:45.841Z,1.75
2019-01-29T12:34:49.156Z,1.72
2019-01-29T12:39:52.350Z,2.11
2019-01-29T12:44:55.643Z,1.84
2019-01-29T12:49:59.051Z,1.96
2019-01-29T12:55:02.334Z,1.95
2019-01-29T13:00:07.185Z,1.67
2019-01-29T13:05:11.417Z,1.75
2019-01-29T13:10:17.694Z,1.50
2019-01-29T13:15:23.266Z,0.33
2019-01-29T13:20:26.552Z,-0.11
2019-01-29T13:25:30.003Z,-0.32
2019-01-29T13:30:34.648Z,-0.35
2019-01-29T13:35:38.024Z,-0.23
2019-01-29T13:40:41.442Z,0.02
2019-01-29T13:45:44.811Z,0.24
2019-01-29T13:50:53.671Z,0.24
2019-01-29T13:55:56.988Z,0.29
2019-01-29T14:01:00.344Z,0.26
2019-01-29T14:06:03.644Z,0.32
2019-01-29T14:11:07.057Z,0.50
2019-01-29T14:16:12.915Z,0.05
2019-01-29T14:21:16.303Z,0.18
2019-01-29T14:26:19.687Z,-0.03
2019-01-29T14:31:23.123Z,0.16
2019-01-29T14:36:26.865Z,0.12
2019-01-29T14:41:30.303Z,-0.01
2019-01-29T14:46:33.743Z,-0.12
2019-01-29T14:51:37.170Z,-0.07
2019-01-29T14:56:40.462Z,0.02
2019-01-29T15:01:44.019Z,-0.04
2019-01-29T15:06:47.073Z,0.07
2019-01-29T15:11:50.373Z,0.15
2019-01-29T15:16:58.782Z,0.27
2019-01-29T15:22:02.131Z,0.09
2019-01-29T15:27:06.107Z,0.06
2019-01-29T15:32:08.998Z,-0.02
2019-01-29T15:37:12.357Z,-0.09
2019-01-29T15:42:15.789Z,-0.14
2019-01-29T15:47:19.095Z,-0.17
2019-01-29T15:52:22.422Z,-0.31
2019-01-29T15:57:25.770Z,-0.39
2019-01-29T16:02:29.058Z,-0.59
2019-01-29T16:07:32.419Z,-0.72
2019-01-29T16:12:35.839Z,-0.92
2019-01-29T16:17:39.182Z,-0.97
2019-01-29T16:22:42.682Z,-0.86
2019-01-29T16:27:46.157Z,-0.83
2019-01-29T16:32:49.643Z,-0.84
2019-01-29T16:37:53.114Z,-0.82
2019-01-29T16:42:56.741Z,-0.88
2019-01-29T16:48:00.152Z,-0.93
2019-01-29T16:53:03.692Z,-0.93
2019-01-29T16:58:07.221Z,-0.89
2019-01-29T17:03:10.586Z,-1.02
2019-01-29T17:08:13.962Z,-1.10
2019-01-29T17:13:17.400Z,-1.17
2019-01-29T17:18:20.864Z,-1.27
2019-01-29T17:23:24.313Z,-1.23
2019-01-29T17:28:27.720Z,-1.39
2019-01-29T17:33:31.158Z,-1.45
2019-01-29T17:38:34.623Z,-1.54
2019-01-29T17:43:38.102Z,-1.64
2019-01-29T17:48:41.597Z,-1.71
2019-01-29T17:53:45.021Z,-1.95
2019-01-29T17:58:48.430Z,-2.12
2019-01-29T18:03:51.913Z,-2.25
2019-01-29T18:08:55.426Z,-2.43
2019-01-29T18:13:58.916Z,-2.64
2019-01-29T18:19:02.340Z,-2.74
2019-01-29T18:24:05.829Z,-2.73
2019-01-29T18:29:09.280Z,-2.79
2019-01-29T18:34:12.766Z,-2.86
2019-01-29T18:39:16.177Z,-2.95
2019-01-29T18:44:19.651Z,-3.05
2019-01-29T18:49:23.101Z,-3.20
2019-01-29T18:54:26.442Z,-3.30
2019-01-29T18:59:29.937Z,-3.34
2019-01-29T19:04:33.431Z,-3.51
2019-01-29T19:09:36.830Z,-3.60
2019-01-29T19:14:40.227Z,-3.70
2019-01-29T19:19:43.535Z,-3.95
2019-01-29T19:24:46.885Z,-3.92
2019-01-29T19:29:50.290Z,-3.85
2019-01-29T19:34:53.693Z,-3.90
2019-01-29T19:39:57.025Z,-3.98
2019-01-29T19:45:00.386Z,-4.09
2019-01-29T19:50:04.232Z,-4.12
2019-01-29T19:55:07.582Z,-4.26
2019-01-29T20:00:15.736Z,-4.39
2019-01-29T20:05:19.096Z,-4.43
2019-01-29T20:10:22.549Z,-4.44
2019-01-29T20:15:26.003Z,-4.52
2019-01-29T20:20:32.612Z,-4.60
2019-01-29T20:25:35.989Z,-4.61
2019-01-29T20:30:39.866Z,-4.53
2019-01-29T20:35:43.294Z,-4.70
2019-01-29T20:40:46.680Z,-4.81
2019-01-29T20:45:50.017Z,-4.84
2019-01-29T20:50:53.415Z,-4.85
2019-01-29T20:55:56.778Z,-4.93
2019-01-29T21:01:00.061Z,-4.85
2019-01-29T21:06:03.459Z,-4.92
2019-01-29T21:11:06.779Z,-4.87
2019-01-29T21:16:10.130Z,-5.01
2019-01-29T21:21:13.595Z,-5.06
2019-01-29T21:26:16.993Z,-5.14
2019-01-29T21:31:20.285Z,-5.19
2019-01-29T21:36:23.606Z,-5.18
2019-01-29T21:41:26.902Z,-5.36
2019-01-29T21:46:30.193Z,-5.42
2019-01-29T21:51:33.434Z,-5.43
2019-01-29T21:56:36.645Z,-5.49
2019-01-29T22:01:39.955Z,-5.43
2019-01-29T22:06:43.205Z,-5.60
2019-01-29T22:11:46.449Z,-5.74
2019-01-29T22:16:49.694Z,-5.76
2019-01-29T22:21:52.903Z,-5.72
2019-01-29T22:26:56.202Z,-5.78
2019-01-29T22:31:59.392Z,-5.99
2019-01-29T22:37:02.590Z,-6.08
2019-01-29T22:42:05.770Z,-6.12
2019-01-29T22:47:09.021Z,-6.17
2019-01-29T22:52:12.222Z,-6.23
2019-01-29T22:57:15.606Z,-6.25
2019-01-29T23:02:18.734Z,-6.35
2019-01-29T23:07:25.883Z,-6.41
2019-01-29T23:12:29.152Z,-6.48
2019-01-29T23:17:32.362Z,-6.51
2019-01-29T23:22:35.697Z,-6.58
2019-01-29T23:27:38.887Z,-6.61
2019-01-29T23:32:42.068Z,-6.47
2019-01-29T23:37:45.298Z,-6.67
2019-01-29T23:42:48.488Z,-6.65
2019-01-29T23:47:55.961Z,-6.60
2019-01-29T23:52:59.177Z,-6.63
2019-01-29T23:58:02.483Z,-6.63
